Time;durP1;ratioP1;P1;durP2;ratioP2;P2;SDS_P1;SDS_P2;PMS_P1;PMS_P2;Temp;Humidity;BMP_temperature;BMP_pressure;BME280_temperature;BME280_humidity;BME280_pressure;Samples;Min_cycle;Max_cycle;Signal;HPM_P1;HPM_P2
2022/05/19 00:01:10;;;;;;;69.05;33.75;;;;;;;;;;5026208;28;20033;-75
2022/05/19 00:03:38;;;;;;;70.93;32.92;;;;;;;;;;5027945;28;20029;-75
2022/05/19 00:06:05;;;;;;;70.85;33.42;;;;;;;;;;5029428;28;20044;-74
2022/05/19 00:08:32;;;;;;;66.70;32.20;;;;;;;;;;5029775;28;20045;-74
2022/05/19 00:11:00;;;;;;;66.55;34.42;;;;;;;;;;5028123;28;20514;-75
2022/05/19 00:13:26;;;;;;;68.85;33.80;;;;;;;;;;5016035;28;20032;-74
2022/05/19 00:15:53;;;;;;;62.28;32.85;;;;;;;;;;5043218;28;20028;-74
2022/05/19 00:18:19;;;;;;;64.35;33.17;;;;;;;;;;5029054;28;20099;-75
2022/05/19 00:20:45;;;;;;;69.47;35.45;;;;;;;;;;5016487;28;20037;-75
2022/05/19 00:23:11;;;;;;;65.65;33.28;;;;;;;;;;5032958;28;20069;-75
2022/05/19 00:25:37;;;;;;;69.57;33.95;;;;;;;;;;5032813;28;20406;-75
2022/05/19 00:28:05;;;;;;;64.90;35.47;;;;;;;;;;5032038;28;20028;-75
2022/05/19 00:30:31;;;;;;;73.20;34.10;;;;;;;;;;5030330;28;20403;-75
2022/05/19 00:32:57;;;;;;;70.55;35.15;;;;;;;;;;5031829;28;20091;-75
2022/05/19 00:35:24;;;;;;;68.45;34.65;;;;;;;;;;5033492;28;20037;-74
2022/05/19 00:37:50;;;;;;;75.35;35.45;;;;;;;;;;5028087;28;20022;-74
2022/05/19 00:40:18;;;;;;;72.65;33.78;;;;;;;;;;5033406;28;20026;-74
2022/05/19 00:42:44;;;;;;;66.28;33.28;;;;;;;;;;5032098;28;20044;-75
2022/05/19 00:45:15;;;;;;;73.22;35.65;;;;;;;;;;5032309;28;20032;-74
2022/05/19 00:48:05;;;;;;;70.93;35.60;;;;;;;;;;5027306;28;20034;-75
2022/05/19 00:50:34;;;;;;;68.82;34.08;;;;;;;;;;5019233;28;20084;-75
2022/05/19 00:53:15;;;;;;;65.38;32.75;;;;;;;;;;5031910;28;20030;-75
2022/05/19 00:55:43;;;;;;;75.22;35.22;;;;;;;;;;5031522;28;20025;-74
2022/05/19 00:58:20;;;;;;;64.43;33.72;;;;;;;;;;5031805;28;20029;-74
2022/05/19 01:00:46;;;;;;;74.85;34.80;;;;;;;;;;5031838;28;20034;-75
2022/05/19 01:03:13;;;;;;;68.15;34.45;;;;;;;;;;5031781;28;20401;-74
2022/05/19 01:05:45;;;;;;;62.58;34.80;;;;;;;;;;5031166;28;20079;-74
2022/05/19 01:08:14;;;;;;;73.90;34.75;;;;;;;;;;5033446;28;20034;-75
2022/05/19 01:10:41;;;;;;;65.60;35.22;;;;;;;;;;5031211;28;20371;-75
2022/05/19 01:13:08;;;;;;;71.57;34.30;;;;;;;;;;5031722;28;20491;-75
2022/05/19 01:15:35;;;;;;;75.13;35.38;;;;;;;;;;5031843;28;20183;-75
2022/05/19 01:18:02;;;;;;;67.05;36.08;;;;;;;;;;5031199;28;20017;-75
2022/05/19 01:20:28;;;;;;;83.28;39.00;;;;;;;;;;5035273;28;20098;-75
2022/05/19 01:22:55;;;;;;;64.93;35.15;;;;;;;;;;5036860;28;20026;-75
2022/05/19 01:25:30;;;;;;;74.88;34.83;;;;;;;;;;5036359;28;20538;-75
2022/05/19 01:27:57;;;;;;;74.20;37.67;;;;;;;;;;5035325;28;20025;-75
2022/05/19 01:30:24;;;;;;;82.80;37.75;;;;;;;;;;5062221;23;20481;-68
2022/05/19 01:32:52;;;;;;;76.93;37.85;;;;;;;;;;5055755;28;20028;-68
2022/05/19 01:35:18;;;;;;;67.82;36.28;;;;;;;;;;5057165;28;20021;-68
2022/05/19 01:37:44;;;;;;;74.95;35.35;;;;;;;;;;5056761;28;20033;-70
2022/05/19 01:40:30;;;;;;;75.68;35.05;;;;;;;;;;5057191;28;20037;-70
2022/05/19 01:43:28;;;;;;;77.80;37.13;;;;;;;;;;5056210;28;20090;-70
2022/05/19 01:46:13;;;;;;;70.72;38.63;;;;;;;;;;4973579;28;20361;-70
2022/05/19 01:48:52;;;;;;;83.30;38.10;;;;;;;;;;4973472;28;20043;-70
2022/05/19 01:51:24;;;;;;;84.22;40.45;;;;;;;;;;4973642;28;20027;-70
2022/05/19 01:53:59;;;;;;;92.68;42.13;;;;;;;;;;4973996;28;20037;-70
2022/05/19 01:56:30;;;;;;;92.25;42.83;;;;;;;;;;4973912;28;20415;-70
2022/05/19 01:59:15;;;;;;;92.22;41.22;;;;;;;;;;4971936;28;20507;-70
2022/05/19 02:01:45;;;;;;;85.57;39.28;;;;;;;;;;4973282;28;20499;-69
2022/05/19 02:04:20;;;;;;;95.35;43.00;;;;;;;;;;4969095;28;20034;-69
2022/05/19 02:06:52;;;;;;;91.75;42.45;;;;;;;;;;4973266;28;20081;-70
2022/05/19 02:09:24;;;;;;;101.40;43.25;;;;;;;;;;4958500;28;20097;-69
2022/05/19 02:11:54;;;;;;;98.43;43.42;;;;;;;;;;4973782;28;20026;-69
2022/05/19 02:14:23;;;;;;;106.60;43.85;;;;;;;;;;4973473;28;20039;-70
2022/05/19 02:16:49;;;;;;;87.60;41.83;;;;;;;;;;4973301;28;20027;-70
2022/05/19 02:19:18;;;;;;;106.25;45.67;;;;;;;;;;4972908;28;20061;-70
2022/05/19 02:21:44;;;;;;;88.13;42.13;;;;;;;;;;5020135;28;20067;-70
2022/05/19 02:24:12;;;;;;;101.47;44.20;;;;;;;;;;5055515;28;20044;-70
2022/05/19 02:26:39;;;;;;;95.47;43.50;;;;;;;;;;5054206;28;20044;-70
2022/05/19 02:29:08;;;;;;;102.32;43.60;;;;;;;;;;5056567;28;20045;-70
2022/05/19 02:31:35;;;;;;;91.85;42.67;;;;;;;;;;5054658;28;20058;-70
2022/05/19 02:34:01;;;;;;;89.93;43.50;;;;;;;;;;5055160;28;20029;-70
2022/05/19 02:36:27;;;;;;;96.70;44.38;;;;;;;;;;5056899;28;20024;-69
2022/05/19 02:38:53;;;;;;;94.50;45.53;;;;;;;;;;5054139;28;20167;-69
2022/05/19 02:41:20;;;;;;;101.65;44.55;;;;;;;;;;5054825;28;20430;-68
2022/05/19 02:43:46;;;;;;;102.82;43.40;;;;;;;;;;5056579;28;20086;-68
2022/05/19 02:46:12;;;;;;;90.57;41.90;;;;;;;;;;5054896;28;20025;-69
2022/05/19 02:48:38;;;;;;;104.38;44.47;;;;;;;;;;5055146;28;20033;-69
2022/05/19 02:51:04;;;;;;;97.82;45.42;;;;;;;;;;5053547;28;20048;-68
2022/05/19 02:53:30;;;;;;;97.13;46.05;;;;;;;;;;5053793;28;20033;-68
2022/05/19 02:55:56;;;;;;;105.28;46.72;;;;;;;;;;5054807;28;20029;-69
2022/05/19 02:58:22;;;;;;;109.53;45.20;;;;;;;;;;5054660;28;20092;-68
2022/05/19 03:00:50;;;;;;;106.40;46.25;;;;;;;;;;5054732;28;20109;-68
2022/05/19 03:03:16;;;;;;;96.13;43.47;;;;;;;;;;5054712;28;20027;-68
2022/05/19 03:05:43;;;;;;;97.85;44.45;;;;;;;;;;5053511;28;20112;-69
2022/05/19 03:08:09;;;;;;;93.03;43.38;;;;;;;;;;5054590;28;20029;-68
2022/05/19 03:10:36;;;;;;;105.70;45.50;;;;;;;;;;5054604;28;20092;-68
2022/05/19 03:13:03;;;;;;;102.15;44.55;;;;;;;;;;5054689;28;20111;-68
2022/05/19 03:15:29;;;;;;;102.40;43.80;;;;;;;;;;5055407;28;20028;-68
2022/05/19 03:17:55;;;;;;;102.70;46.33;;;;;;;;;;5053943;28;20025;-68
2022/05/19 03:20:22;;;;;;;100.05;46.50;;;;;;;;;;5053633;28;20029;-68
2022/05/19 03:22:48;;;;;;;105.20;46.20;;;;;;;;;;5055547;28;20041;-68
2022/05/19 03:25:14;;;;;;;88.63;43.53;;;;;;;;;;5054086;28;20040;-69
2022/05/19 03:27:41;;;;;;;87.00;42.03;;;;;;;;;;5052864;28;20021;-68
2022/05/19 03:30:09;;;;;;;97.15;43.85;;;;;;;;;;5054202;28;20463;-68
2022/05/19 03:32:35;;;;;;;91.68;45.97;;;;;;;;;;5053240;28;20115;-68
2022/05/19 03:35:01;;;;;;;105.90;45.65;;;;;;;;;;5053903;28;20040;-68
2022/05/19 03:37:27;;;;;;;97.80;45.85;;;;;;;;;;5054392;28;20419;-70
2022/05/19 03:39:53;;;;;;;99.72;45.30;;;;;;;;;;5053562;28;20437;-70
2022/05/19 03:42:19;;;;;;;99.97;47.75;;;;;;;;;;5053595;28;20040;-70
2022/05/19 03:44:45;;;;;;;105.93;45.80;;;;;;;;;;5052864;28;20028;-70
2022/05/19 03:47:12;;;;;;;112.70;46.63;;;;;;;;;;5055258;28;20532;-70
2022/05/19 03:49:38;;;;;;;103.65;47.60;;;;;;;;;;5053706;28;20036;-70
2022/05/19 03:52:04;;;;;;;101.00;48.35;;;;;;;;;;5053762;28;20033;-70
2022/05/19 03:54:30;;;;;;;103.57;49.28;;;;;;;;;;5054742;28;20021;-70
2022/05/19 03:56:56;;;;;;;105.75;48.38;;;;;;;;;;5053367;28;20041;-70
2022/05/19 03:59:22;;;;;;;104.40;48.00;;;;;;;;;;5053159;28;20025;-70
2022/05/19 04:01:49;;;;;;;102.53;47.70;;;;;;;;;;5054926;28;20127;-70
2022/05/19 04:04:15;;;;;;;105.32;47.53;;;;;;;;;;5053179;28;20542;-69
2022/05/19 04:06:41;;;;;;;118.07;50.33;;;;;;;;;;5053307;28;20029;-70
2022/05/19 04:09:07;;;;;;;117.80;49.78;;;;;;;;;;5053858;28;20029;-69
2022/05/19 04:11:33;;;;;;;113.40;50.67;;;;;;;;;;5052784;28;20025;-69
2022/05/19 04:14:00;;;;;;;116.18;51.83;;;;;;;;;;5053383;28;20035;-70
2022/05/19 04:16:26;;;;;;;109.78;50.70;;;;;;;;;;5052900;28;20029;-70
2022/05/19 04:18:52;;;;;;;113.35;53.47;;;;;;;;;;5053025;28;20032;-70
2022/05/19 04:21:19;;;;;;;111.50;51.30;;;;;;;;;;5053328;28;20048;-70
2022/05/19 04:23:45;;;;;;;121.13;52.72;;;;;;;;;;5052699;28;20028;-69
2022/05/19 04:26:12;;;;;;;117.97;52.45;;;;;;;;;;5051214;28;20033;-70
2022/05/19 04:28:38;;;;;;;120.95;52.67;;;;;;;;;;5052948;28;20051;-71
2022/05/19 04:31:04;;;;;;;127.32;53.08;;;;;;;;;;5054632;28;20039;-69
2022/05/19 04:33:30;;;;;;;125.90;54.60;;;;;;;;;;5052372;28;20029;-69
2022/05/19 04:35:56;;;;;;;126.30;54.10;;;;;;;;;;5053071;28;20031;-70
2022/05/19 04:38:22;;;;;;;121.78;52.97;;;;;;;;;;5052978;28;20071;-69
2022/05/19 04:40:49;;;;;;;120.28;53.38;;;;;;;;;;5054358;28;20032;-70
2022/05/19 04:43:19;;;;;;;126.53;52.45;;;;;;;;;;5052716;28;20047;-70
2022/05/19 04:45:47;;;;;;;116.32;54.72;;;;;;;;;;5052839;28;20028;-68
2022/05/19 04:48:13;;;;;;;124.97;54.65;;;;;;;;;;5048273;28;20381;-68
2022/05/19 04:50:39;;;;;;;131.93;55.80;;;;;;;;;;5051781;28;20171;-68
2022/05/19 04:53:05;;;;;;;137.32;56.95;;;;;;;;;;5051057;28;20044;-68
2022/05/19 04:55:31;;;;;;;123.35;56.05;;;;;;;;;;5054530;28;20512;-67
2022/05/19 04:57:57;;;;;;;120.88;53.53;;;;;;;;;;5055786;28;20033;-73
2022/05/19 05:00:23;;;;;;;121.22;54.05;;;;;;;;;;5056790;28;20036;-71
2022/05/19 05:02:50;;;;;;;117.13;53.60;;;;;;;;;;5051762;28;20539;-71
2022/05/19 05:05:17;;;;;;;120.40;54.58;;;;;;;;;;5057734;28;20480;-71
2022/05/19 05:07:43;;;;;;;133.43;55.20;;;;;;;;;;5058885;28;20511;-71
2022/05/19 05:10:09;;;;;;;128.98;56.85;;;;;;;;;;5056454;28;20031;-70
2022/05/19 05:12:35;;;;;;;135.43;57.70;;;;;;;;;;5057800;28;20016;-70
2022/05/19 05:15:02;;;;;;;145.20;59.35;;;;;;;;;;5056673;28;20029;-70
2022/05/19 05:17:28;;;;;;;143.52;59.55;;;;;;;;;;5055548;28;20094;-70
2022/05/19 05:19:54;;;;;;;154.02;60.33;;;;;;;;;;5057567;28;20404;-70
2022/05/19 05:22:20;;;;;;;143.38;59.60;;;;;;;;;;5051213;28;20033;-68
2022/05/19 05:24:46;;;;;;;147.10;58.38;;;;;;;;;;5044597;28;20037;-71
2022/05/19 05:27:13;;;;;;;137.10;55.97;;;;;;;;;;5063888;22;20053;-71
2022/05/19 05:29:39;;;;;;;139.48;58.28;;;;;;;;;;5054635;28;20025;-71
2022/05/19 05:32:05;;;;;;;146.98;57.00;;;;;;;;;;5055218;28;20035;-71
2022/05/19 05:34:31;;;;;;;127.30;56.10;;;;;;;;;;5056052;28;20036;-71
2022/05/19 05:36:57;;;;;;;127.90;54.35;;;;;;;;;;5055119;28;20575;-71
2022/05/19 05:39:23;;;;;;;125.70;53.08;;;;;;;;;;5054956;28;20017;-71
2022/05/19 05:41:49;;;;;;;124.68;52.60;;;;;;;;;;5054900;28;20048;-71
2022/05/19 05:44:15;;;;;;;125.88;54.78;;;;;;;;;;5055192;28;20036;-71
2022/05/19 05:46:42;;;;;;;118.50;51.78;;;;;;;;;;5054571;28;20033;-86
2022/05/19 05:49:08;;;;;;;118.72;52.90;;;;;;;;;;5055239;28;22057;-85
2022/05/19 05:51:34;;;;;;;121.80;50.53;;;;;;;;;;5056714;28;20481;-85
2022/05/19 05:54:00;;;;;;;119.80;49.13;;;;;;;;;;5054770;28;20029;-85
2022/05/19 05:56:26;;;;;;;122.55;52.25;;;;;;;;;;5054197;28;20063;-85
2022/05/19 05:58:52;;;;;;;130.80;52.55;;;;;;;;;;5055939;28;20037;-84
2022/05/19 06:01:19;;;;;;;127.90;52.47;;;;;;;;;;5054619;28;20040;-85
2022/05/19 06:03:46;;;;;;;129.38;51.92;;;;;;;;;;5054939;28;20031;-86
2022/05/19 06:06:12;;;;;;;121.45;50.45;;;;;;;;;;5054213;28;20122;-73
2022/05/19 06:08:39;;;;;;;126.63;51.53;;;;;;;;;;5053334;28;20055;-76
2022/05/19 06:11:05;;;;;;;119.05;50.08;;;;;;;;;;5054367;28;20444;-76
2022/05/19 06:13:32;;;;;;;114.95;49.63;;;;;;;;;;5054079;28;20025;-77
2022/05/19 06:15:58;;;;;;;112.28;48.75;;;;;;;;;;5054244;28;20032;-76
2022/05/19 06:18:25;;;;;;;100.75;48.72;;;;;;;;;;5054275;28;20040;-77
2022/05/19 06:20:51;;;;;;;127.32;52.42;;;;;;;;;;5052929;28;20446;-76
2022/05/19 06:23:18;;;;;;;111.10;51.40;;;;;;;;;;5054003;28;20035;-76
2022/05/19 06:25:44;;;;;;;115.68;52.63;;;;;;;;;;5052891;28;20041;-76
2022/05/19 06:28:11;;;;;;;122.93;57.92;;;;;;;;;;5053836;28;20048;-77
2022/05/19 06:30:37;;;;;;;120.65;57.33;;;;;;;;;;5054795;28;20509;-77
2022/05/19 06:33:05;;;;;;;121.28;55.33;;;;;;;;;;5053639;28;20509;-77
2022/05/19 06:35:32;;;;;;;109.82;55.17;;;;;;;;;;5054598;28;20040;-76
2022/05/19 06:37:58;;;;;;;110.28;53.90;;;;;;;;;;5054043;28;20052;-76
2022/05/19 06:40:25;;;;;;;96.45;47.03;;;;;;;;;;5053632;28;20115;-75
2022/05/19 06:42:52;;;;;;;115.57;52.45;;;;;;;;;;5053791;28;20417;-76
2022/05/19 06:45:20;;;;;;;98.32;46.90;;;;;;;;;;5053103;28;20462;-77
2022/05/19 06:47:46;;;;;;;73.63;39.13;;;;;;;;;;5052313;28;20552;-77
2022/05/19 06:50:13;;;;;;;81.13;38.95;;;;;;;;;;5054774;28;20094;-77
2022/05/19 06:53:02;;;;;;;68.43;35.13;;;;;;;;;;5053667;28;20021;-77
2022/05/19 06:55:28;;;;;;;95.25;46.05;;;;;;;;;;5053810;28;20039;-77
2022/05/19 06:57:54;;;;;;;95.18;47.90;;;;;;;;;;5052921;28;20013;-77
2022/05/19 07:00:22;;;;;;;100.18;44.33;;;;;;;;;;5053447;28;20048;-77
2022/05/19 07:02:50;;;;;;;71.45;36.75;;;;;;;;;;5052594;28;20486;-77
2022/05/19 07:05:19;;;;;;;70.75;33.40;;;;;;;;;;5053644;28;20532;-77
2022/05/19 07:07:46;;;;;;;51.70;28.50;;;;;;;;;;5053618;28;20108;-77
2022/05/19 07:10:14;;;;;;;50.30;28.88;;;;;;;;;;5054896;28;20039;-77
2022/05/19 07:12:43;;;;;;;50.65;26.27;;;;;;;;;;5053175;28;20094;-72
2022/05/19 07:15:09;;;;;;;44.25;26.63;;;;;;;;;;5053787;28;20135;-77
2022/05/19 07:17:35;;;;;;;57.28;27.30;;;;;;;;;;5053535;28;20512;-77
2022/05/19 07:22:54;;;;;;;47.83;26.60;;;;;;;;;;5023164;28;20077;-77
2022/05/19 07:25:21;;;;;;;44.80;25.50;;;;;;;;;;5021180;28;20496;-78
2022/05/19 07:27:47;;;;;;;44.92;24.70;;;;;;;;;;5026373;28;20041;-77
2022/05/19 07:30:13;;;;;;;46.28;22.30;;;;;;;;;;5042117;28;20048;-77
2022/05/19 07:32:39;;;;;;;43.22;22.73;;;;;;;;;;5026501;28;20168;-78
2022/05/19 07:35:06;;;;;;;41.63;23.85;;;;;;;;;;5025155;28;20057;-77
2022/05/19 07:37:33;;;;;;;43.58;24.20;;;;;;;;;;5025015;28;20554;-78
2022/05/19 07:39:59;;;;;;;44.00;24.92;;;;;;;;;;5025318;28;20034;-78
2022/05/19 07:42:25;;;;;;;41.72;25.20;;;;;;;;;;5025121;28;20399;-77
2022/05/19 07:44:52;;;;;;;40.72;23.85;;;;;;;;;;5023864;28;20116;-74
2022/05/19 07:47:19;;;;;;;45.55;25.08;;;;;;;;;;5024879;28;20045;-78
2022/05/19 07:49:46;;;;;;;42.30;24.75;;;;;;;;;;5025273;28;20021;-78
2022/05/19 07:52:13;;;;;;;43.15;25.48;;;;;;;;;;5025518;28;20060;-77
2022/05/19 07:54:39;;;;;;;42.55;24.73;;;;;;;;;;5025575;28;20029;-78
2022/05/19 07:57:05;;;;;;;49.15;25.17;;;;;;;;;;5025442;28;20044;-78
2022/05/19 07:59:32;;;;;;;50.33;24.45;;;;;;;;;;5027711;28;20037;-78
2022/05/19 08:01:58;;;;;;;50.92;25.63;;;;;;;;;;5042611;28;20041;-77
2022/05/19 08:04:25;;;;;;;45.80;23.77;;;;;;;;;;5047162;28;20108;-78
2022/05/19 08:06:52;;;;;;;38.10;21.48;;;;;;;;;;5052989;28;20028;-78
2022/05/19 08:12:03;;;;;;;35.65;20.45;;;;;;;;;;5052113;28;20040;-78
2022/05/19 08:17:17;;;;;;;43.00;22.08;;;;;;;;;;5052508;28;20513;-79
2022/05/19 08:19:45;;;;;;;39.17;21.27;;;;;;;;;;5132191;22;20055;-76
2022/05/19 08:22:11;;;;;;;40.90;21.02;;;;;;;;;;5052301;28;20032;-77
2022/05/19 08:24:37;;;;;;;33.60;19.63;;;;;;;;;;5052534;28;20025;-76
2022/05/19 08:27:04;;;;;;;39.25;20.48;;;;;;;;;;5051519;28;20093;-79
2022/05/19 08:29:31;;;;;;;35.78;20.60;;;;;;;;;;5052439;28;20028;-79
2022/05/19 08:31:57;;;;;;;30.30;19.45;;;;;;;;;;5052012;28;20033;-79
2022/05/19 08:34:23;;;;;;;32.25;15.38;;;;;;;;;;5053712;28;20021;-79
2022/05/19 08:36:50;;;;;;;26.45;12.43;;;;;;;;;;5051431;28;20128;-79
2022/05/19 08:39:18;;;;;;;22.90;12.50;;;;;;;;;;5051660;28;20021;-80
2022/05/19 08:41:47;;;;;;;31.50;13.48;;;;;;;;;;5046819;28;20029;-79
2022/05/19 08:44:20;;;;;;;29.73;13.05;;;;;;;;;;5053084;28;20490;-80
2022/05/19 08:46:48;;;;;;;32.70;13.80;;;;;;;;;;5051961;28;20029;-80
2022/05/19 08:49:37;;;;;;;26.65;14.60;;;;;;;;;;5051219;28;20032;-80
2022/05/19 08:52:11;;;;;;;22.75;13.68;;;;;;;;;;5040830;28;20025;-80
2022/05/19 08:54:38;;;;;;;24.33;13.13;;;;;;;;;;5050094;28;20044;-80
2022/05/19 08:57:13;;;;;;;31.50;13.90;;;;;;;;;;5052295;28;20075;-81
2022/05/19 08:59:58;;;;;;;24.05;13.48;;;;;;;;;;5051276;28;20037;-80
2022/05/19 09:02:31;;;;;;;31.75;14.35;;;;;;;;;;5052693;28;20094;-81
2022/05/19 09:05:03;;;;;;;23.70;13.05;;;;;;;;;;5050174;28;20394;-80
2022/05/19 09:10:31;;;;;;;32.47;12.75;;;;;;;;;;5051411;28;20029;-80
2022/05/19 09:13:04;;;;;;;27.40;12.93;;;;;;;;;;5053254;28;20047;-81
2022/05/19 09:15:30;;;;;;;26.38;13.25;;;;;;;;;;5051696;28;20124;-81
2022/05/19 09:17:57;;;;;;;23.88;11.65;;;;;;;;;;5051427;28;20033;-80
2022/05/19 09:20:36;;;;;;;32.67;12.60;;;;;;;;;;5051263;28;20053;-82
2022/05/19 09:23:04;;;;;;;26.60;11.23;;;;;;;;;;5051194;28;20068;-82
2022/05/19 09:25:30;;;;;;;31.73;14.38;;;;;;;;;;5050364;28;20032;-80
2022/05/19 09:27:59;;;;;;;31.52;13.18;;;;;;;;;;5051971;28;20569;-80
2022/05/19 09:30:40;;;;;;;23.33;11.85;;;;;;;;;;5051806;28;20025;-80
2022/05/19 09:33:14;;;;;;;27.63;12.60;;;;;;;;;;5051744;28;20029;-80
2022/05/19 09:35:43;;;;;;;25.67;12.00;;;;;;;;;;5050649;28;20075;-80
2022/05/19 09:38:25;;;;;;;31.73;13.05;;;;;;;;;;5052503;28;20079;-80
2022/05/19 09:40:54;;;;;;;24.25;11.95;;;;;;;;;;5053046;28;20068;-80
2022/05/19 09:43:21;;;;;;;27.40;12.07;;;;;;;;;;5055506;28;20029;-80
2022/05/19 09:45:49;;;;;;;25.63;11.95;;;;;;;;;;5056522;28;20028;-80
2022/05/19 09:48:20;;;;;;;25.15;11.98;;;;;;;;;;5039303;28;20410;-80
2022/05/19 09:50:48;;;;;;;26.63;11.80;;;;;;;;;;5050004;28;20028;-80
2022/05/19 09:53:21;;;;;;;29.52;11.55;;;;;;;;;;5056133;28;20028;-80
2022/05/19 09:55:54;;;;;;;25.92;11.85;;;;;;;;;;5054970;28;20044;-81
2022/05/19 09:58:20;;;;;;;25.58;11.57;;;;;;;;;;5055330;28;20059;-80
2022/05/19 10:00:53;;;;;;;30.85;12.70;;;;;;;;;;5054916;28;20092;-81
2022/05/19 10:03:25;;;;;;;28.33;13.53;;;;;;;;;;5038349;28;20067;-81
2022/05/19 10:05:56;;;;;;;33.42;13.52;;;;;;;;;;5054034;28;20032;-81
2022/05/19 10:08:35;;;;;;;32.72;12.30;;;;;;;;;;5055141;28;20032;-80
2022/05/19 10:11:03;;;;;;;27.13;13.13;;;;;;;;;;5054512;28;20029;-80
2022/05/19 10:13:36;;;;;;;24.30;12.05;;;;;;;;;;5054572;28;20068;-80
2022/05/19 10:16:07;;;;;;;28.33;13.00;;;;;;;;;;5056236;28;20045;-80
2022/05/19 10:18:39;;;;;;;24.15;11.00;;;;;;;;;;5054334;28;20029;-79
2022/05/19 10:21:28;;;;;;;25.92;11.05;;;;;;;;;;5054008;28;20029;-80
2022/05/19 10:23:58;;;;;;;26.77;11.98;;;;;;;;;;5051374;28;20029;-81
2022/05/19 10:26:38;;;;;;;27.40;11.88;;;;;;;;;;5055710;28;20029;-80
2022/05/19 10:32:07;;;;;;;28.20;9.68;;;;;;;;;;5055840;28;20036;-80
2022/05/19 10:34:46;;;;;;;22.52;9.90;;;;;;;;;;5054301;28;20021;-80
2022/05/19 10:37:28;;;;;;;25.23;9.90;;;;;;;;;;5054141;28;20378;-79
2022/05/19 10:40:23;;;;;;;26.70;10.32;;;;;;;;;;5060824;23;20044;-70
2022/05/19 10:42:52;;;;;;;22.23;10.40;;;;;;;;;;5049914;28;20516;-70
2022/05/19 10:45:24;;;;;;;26.83;10.98;;;;;;;;;;5038866;28;20059;-70
2022/05/19 10:48:09;;;;;;;26.60;11.93;;;;;;;;;;5053498;28;20028;-70
2022/05/19 10:50:38;;;;;;;22.50;10.48;;;;;;;;;;5052219;28;20116;-69
2022/05/19 10:53:14;;;;;;;17.95;9.93;;;;;;;;;;5054431;28;20609;-70
2022/05/19 10:55:58;;;;;;;31.15;9.60;;;;;;;;;;5055771;28;20025;-69
2022/05/19 10:58:33;;;;;;;23.13;9.07;;;;;;;;;;5054291;28;20032;-70
2022/05/19 11:01:03;;;;;;;27.33;8.95;;;;;;;;;;5052623;28;20094;-73
2022/05/19 11:03:29;;;;;;;23.40;9.20;;;;;;;;;;5055223;28;20056;-70
2022/05/19 11:06:01;;;;;;;26.05;9.02;;;;;;;;;;5052782;28;20094;-70
2022/05/19 11:08:27;;;;;;;22.48;9.43;;;;;;;;;;5051216;28;20481;-70
2022/05/19 11:10:59;;;;;;;22.25;9.00;;;;;;;;;;5055146;28;20028;-70
2022/05/19 11:13:34;;;;;;;27.20;9.52;;;;;;;;;;5054047;28;20451;-71
2022/05/19 11:16:10;;;;;;;21.73;9.27;;;;;;;;;;5053529;28;20074;-71
2022/05/19 11:18:52;;;;;;;19.30;8.68;;;;;;;;;;5053561;28;20029;-71
2022/05/19 11:21:38;;;;;;;23.88;9.30;;;;;;;;;;5038089;28;20494;-71
2022/05/19 11:24:10;;;;;;;19.83;10.02;;;;;;;;;;5053724;28;20028;-71
2022/05/19 11:26:40;;;;;;;20.58;8.73;;;;;;;;;;5052845;28;20040;-70
2022/05/19 11:29:06;;;;;;;25.58;10.45;;;;;;;;;;5053300;28;20033;-71
2022/05/19 11:31:35;;;;;;;17.20;9.52;;;;;;;;;;5053835;28;20033;-70
2022/05/19 11:34:05;;;;;;;18.27;8.05;;;;;;;;;;5054604;28;20031;-70
2022/05/19 11:36:43;;;;;;;18.33;8.35;;;;;;;;;;5053711;28;20028;-69
2022/05/19 11:39:15;;;;;;;19.75;8.07;;;;;;;;;;5052306;28;20128;-70
2022/05/19 11:41:41;;;;;;;19.38;8.75;;;;;;;;;;5052518;28;20052;-70
2022/05/19 11:44:33;;;;;;;20.30;7.70;;;;;;;;;;5054462;28;20044;-69
2022/05/19 11:47:03;;;;;;;18.20;8.10;;;;;;;;;;5049382;28;20029;-70
2022/05/19 11:55:27;;;;;;;26.70;9.23;;;;;;;;;;5053004;28;20090;-69
2022/05/19 11:58:04;;;;;;;17.45;8.10;;;;;;;;;;5053165;28;20059;-69
2022/05/19 12:00:33;;;;;;;22.77;7.40;;;;;;;;;;5046396;28;20559;-68
2022/05/19 12:03:02;;;;;;;23.52;7.22;;;;;;;;;;5049343;28;20495;-69
2022/05/19 12:05:35;;;;;;;18.73;7.97;;;;;;;;;;5065214;28;20028;-70
2022/05/19 12:08:13;;;;;;;18.20;8.13;;;;;;;;;;5054608;28;20029;-69
2022/05/19 12:10:41;;;;;;;19.45;8.00;;;;;;;;;;5052339;28;20025;-70
2022/05/19 12:13:09;;;;;;;17.50;7.43;;;;;;;;;;5051105;28;20029;-70
2022/05/19 12:15:36;;;;;;;16.27;7.38;;;;;;;;;;5048748;28;20017;-71
2022/05/19 12:18:10;;;;;;;21.33;8.27;;;;;;;;;;5050262;28;20075;-69
2022/05/19 12:20:39;;;;;;;17.38;7.68;;;;;;;;;;5052210;28;20037;-69
2022/05/19 12:23:15;;;;;;;15.23;7.65;;;;;;;;;;5052548;28;20033;-69
2022/05/19 12:25:45;;;;;;;15.30;7.18;;;;;;;;;;5051792;28;20436;-70
2022/05/19 12:28:14;;;;;;;17.33;7.15;;;;;;;;;;5052960;28;20036;-70
2022/05/19 12:33:37;;;;;;;20.75;8.15;;;;;;;;;;5038004;28;20036;-69
2022/05/19 12:36:06;;;;;;;18.83;7.20;;;;;;;;;;5051224;28;20524;-72
2022/05/19 12:38:35;;;;;;;17.95;7.70;;;;;;;;;;5053231;28;20129;-70
2022/05/19 12:41:02;;;;;;;16.77;7.50;;;;;;;;;;5047941;28;20121;-71
2022/05/19 12:43:37;;;;;;;17.77;7.90;;;;;;;;;;5051934;28;20439;-71
2022/05/19 12:46:04;;;;;;;23.45;8.13;;;;;;;;;;5052150;28;20025;-70
2022/05/19 12:48:33;;;;;;;20.33;9.52;;;;;;;;;;5052677;28;20112;-71
2022/05/19 12:51:09;;;;;;;20.45;9.45;;;;;;;;;;5051704;28;20545;-71
2022/05/19 12:53:38;;;;;;;27.15;9.85;;;;;;;;;;5052418;28;20037;-68
2022/05/19 12:56:04;;;;;;;23.90;9.65;;;;;;;;;;5049787;28;20021;-68
2022/05/19 12:58:41;;;;;;;22.85;9.93;;;;;;;;;;5050849;28;20025;-68
2022/05/19 13:01:26;;;;;;;26.85;10.02;;;;;;;;;;5053527;28;20024;-70
2022/05/19 13:04:13;;;;;;;29.42;11.60;;;;;;;;;;5050153;28;20029;-70
2022/05/19 13:06:40;;;;;;;22.48;10.25;;;;;;;;;;5032166;28;20040;-69
2022/05/19 13:09:08;;;;;;;25.00;10.63;;;;;;;;;;5051627;28;20115;-69
2022/05/19 13:11:37;;;;;;;28.02;10.73;;;;;;;;;;5047183;28;20037;-69
2022/05/19 13:14:08;;;;;;;32.85;11.18;;;;;;;;;;5043422;28;20027;-70
2022/05/19 13:16:38;;;;;;;19.27;10.75;;;;;;;;;;5043810;28;20028;-70
2022/05/19 13:19:25;;;;;;;25.80;11.48;;;;;;;;;;5048171;28;20025;-70
2022/05/19 13:21:57;;;;;;;20.50;9.57;;;;;;;;;;5049205;28;20045;-69
2022/05/19 13:24:24;;;;;;;30.65;11.07;;;;;;;;;;5048843;28;20040;-69
2022/05/19 13:32:33;;;;;;;22.73;10.25;;;;;;;;;;5039175;28;20075;-69
2022/05/19 13:35:00;;;;;;;26.88;8.88;;;;;;;;;;5050910;28;20500;-69
2022/05/19 13:37:31;;;;;;;22.08;9.82;;;;;;;;;;5050639;28;20095;-69
2022/05/19 13:40:13;;;;;;;24.30;10.15;;;;;;;;;;5050983;28;20044;-71
2022/05/19 13:42:43;;;;;;;23.80;8.63;;;;;;;;;;5052258;28;20052;-70
2022/05/19 13:45:10;;;;;;;26.80;9.95;;;;;;;;;;5052350;28;20037;-69
2022/05/19 13:47:36;;;;;;;29.20;9.38;;;;;;;;;;5053805;28;20025;-71
2022/05/19 13:50:05;;;;;;;26.48;9.23;;;;;;;;;;5055375;28;20032;-70
2022/05/19 13:52:34;;;;;;;26.50;10.23;;;;;;;;;;5048961;28;20054;-71
2022/05/19 13:55:00;;;;;;;23.63;9.10;;;;;;;;;;5049401;28;20478;-71
2022/05/19 13:57:27;;;;;;;25.48;9.63;;;;;;;;;;5052212;28;20030;-70
2022/05/19 13:59:59;;;;;;;22.77;9.40;;;;;;;;;;5056569;28;20033;-70
2022/05/19 14:02:32;;;;;;;25.83;9.25;;;;;;;;;;5058581;28;20037;-72
2022/05/19 14:04:59;;;;;;;26.02;9.50;;;;;;;;;;5060258;28;20025;-71
2022/05/19 14:07:26;;;;;;;24.17;9.40;;;;;;;;;;5060636;28;20075;-70
2022/05/19 14:09:52;;;;;;;24.88;9.45;;;;;;;;;;5055622;28;20021;-70
2022/05/19 14:12:39;;;;;;;23.08;9.40;;;;;;;;;;5050963;28;20043;-69
2022/05/19 14:15:19;;;;;;;24.42;9.32;;;;;;;;;;5053906;28;20025;-70
2022/05/19 14:17:47;;;;;;;27.48;8.43;;;;;;;;;;5049780;28;20029;-70
2022/05/19 14:20:19;;;;;;;19.52;8.70;;;;;;;;;;5054914;28;20405;-71
2022/05/19 14:22:46;;;;;;;22.40;9.05;;;;;;;;;;5056264;28;20142;-71
2022/05/19 14:25:12;;;;;;;25.42;8.45;;;;;;;;;;5056714;28;20055;-71
2022/05/19 14:27:39;;;;;;;23.50;8.35;;;;;;;;;;5054274;28;20618;-71
2022/05/19 14:30:13;;;;;;;27.00;8.05;;;;;;;;;;5048277;28;20100;-71
2022/05/19 14:32:39;;;;;;;;;;;;;;;;;;5056968;28;20054;-71
2022/05/19 14:35:17;;;;;;;24.73;8.00;;;;;;;;;;5048648;28;20001;-71
2022/05/19 14:37:44;;;;;;;27.58;9.10;;;;;;;;;;5045883;28;20033;-70
2022/05/19 14:43:05;;;;;;;21.60;8.02;;;;;;;;;;5046419;28;20127;-70
2022/05/19 14:45:49;;;;;;;31.90;10.02;;;;;;;;;;5045498;28;20041;-70
2022/05/19 14:48:39;;;;;;;20.52;7.35;;;;;;;;;;5044803;28;20121;-69
2022/05/19 14:51:28;;;;;;;25.05;8.50;;;;;;;;;;5043568;28;20055;-70
2022/05/19 14:53:57;;;;;;;15.57;6.72;;;;;;;;;;5042042;28;20033;-69
2022/05/19 14:56:23;;;;;;;25.83;6.97;;;;;;;;;;5048018;28;20033;-69
2022/05/19 14:58:54;;;;;;;23.35;7.28;;;;;;;;;;5046607;28;20029;-69
2022/05/19 15:01:21;;;;;;;20.13;7.68;;;;;;;;;;5046223;28;20037;-69